Time;durP1;ratioP1;P1;durP2;ratioP2;P2;SDS_P1;SDS_P2;PMS_P1;PMS_P2;Temp;Humidity;BMP_temperature;BMP_pressure;BME280_temperature;BME280_humidity;BME280_pressure;Samples;Min_cycle;Max_cycle;Signal;HPM_P1;HPM_P2
2023/11/26 00:02:12;;;;;;;10.40;6.70;;;;;;;-0.44;81.41;98637.49;103185;1253;139433;-71
2023/11/26 00:04:39;;;;;;;11.50;6.00;;;;;;;-0.41;81.27;98638.83;103298;1254;97800;-72
2023/11/26 00:07:06;;;;;;;11.00;6.00;;;;;;;-0.40;81.11;98640.52;103368;1258;108814;-72
2023/11/26 00:09:36;;;;;;;11.70;6.10;;;;;;;-0.38;81.13;98637.91;103223;1258;137734;-72
2023/11/26 00:12:03;;;;;;;10.80;6.40;;;;;;;-0.41;80.84;98641.21;102568;1256;1003732;-71
2023/11/26 00:14:31;;;;;;;10.20;5.90;;;;;;;-0.45;80.85;98645.36;102504;1254;1002513;-72
2023/11/26 00:16:58;;;;;;;10.70;6.10;;;;;;;-0.51;80.48;98645.29;103339;1254;97971;-71
2023/11/26 00:19:27;;;;;;;11.70;5.90;;;;;;;-0.56;80.68;98646.02;102442;1254;1002714;-71
2023/11/26 00:21:54;;;;;;;9.70;5.60;;;;;;;-0.60;80.80;98648.30;103211;1254;140536;-71
2023/11/26 00:24:21;;;;;;;11.10;5.90;;;;;;;-0.64;80.77;98651.76;103352;1257;110691;-71
2023/11/26 00:26:48;;;;;;;8.90;5.00;;;;;;;-0.67;80.78;98649.92;102423;1254;1002998;-72
2023/11/26 00:29:15;;;;;;;9.50;5.40;;;;;;;-0.64;80.76;98657.23;102648;1254;1003405;-70
2023/11/26 00:31:42;;;;;;;9.40;5.70;;;;;;;-0.60;80.87;98660.92;103322;1254;107855;-70
2023/11/26 00:34:08;;;;;;;9.50;5.70;;;;;;;-0.57;80.99;98667.37;102416;1254;1003529;-70
2023/11/26 00:36:35;;;;;;;9.70;5.60;;;;;;;-0.54;80.83;98671.10;102565;1254;1002848;-72
2023/11/26 00:39:03;;;;;;;12.60;6.10;;;;;;;-0.52;80.86;98673.48;102494;1254;1003271;-72
2023/11/26 00:41:30;;;;;;;11.50;6.90;;;;;;;-0.53;80.56;98678.09;103294;1254;98341;-70
2023/11/26 00:43:57;;;;;;;9.40;6.10;;;;;;;-0.56;80.46;98680.67;101768;1254;1016116;-70
2023/11/26 00:46:24;;;;;;;10.30;6.20;;;;;;;-0.56;80.66;98689.71;102660;1255;1004703;-71
2023/11/26 00:48:51;;;;;;;11.80;6.30;;;;;;;-0.57;80.47;98690.77;103322;1256;110972;-71
2023/11/26 00:51:24;;;;;;;10.70;6.10;;;;;;;-0.58;80.59;98692.48;103255;1255;139170;-70
2023/11/26 00:53:51;;;;;;;9.10;5.50;;;;;;;-0.59;80.61;98693.52;102556;1254;1003617;-71
2023/11/26 00:56:18;;;;;;;8.20;5.30;;;;;;;-0.58;80.41;98692.65;103191;1254;139066;-72
2023/11/26 00:58:46;;;;;;;10.00;5.80;;;;;;;-0.60;80.44;98697.11;103116;1256;98417;-72
2023/11/26 01:01:14;;;;;;;9.80;5.40;;;;;;;-0.59;80.33;98696.92;103112;1256;110609;-70
2023/11/26 01:03:41;;;;;;;9.60;5.90;;;;;;;-0.58;80.26;98692.65;102439;1256;1003377;-72
2023/11/26 01:06:09;;;;;;;10.60;6.10;;;;;;;-0.61;80.15;98693.21;102588;1256;1003592;-72
2023/11/26 01:08:36;;;;;;;7.20;5.30;;;;;;;-0.63;80.27;98695.27;103249;1259;137902;-72
2023/11/26 01:11:05;;;;;;;10.90;6.50;;;;;;;-0.64;80.31;98699.73;103122;1256;97783;-72
2023/11/26 01:13:33;;;;;;;10.80;6.10;;;;;;;-0.67;80.10;98691.41;103305;1259;111388;-72
2023/11/26 01:16:00;;;;;;;9.80;6.20;;;;;;;-0.72;80.23;98695.90;102436;1254;1003707;-71
2023/11/26 01:18:27;;;;;;;12.50;6.60;;;;;;;-0.80;80.29;98693.27;103256;1257;97918;-71
2023/11/26 01:20:53;;;;;;;11.80;5.80;;;;;;;-0.85;80.56;98688.20;103176;1258;137742;-71
2023/11/26 01:23:21;;;;;;;11.60;6.00;;;;;;;-0.93;80.42;98690.15;102554;1254;1003728;-71
2023/11/26 01:25:48;;;;;;;10.20;6.30;;;;;;;-0.99;80.56;98681.18;103265;1256;110719;-71
2023/11/26 01:28:15;;;;;;;9.50;5.30;;;;;;;-1.01;80.90;98684.46;103328;1254;108419;-71
2023/11/26 01:30:42;;;;;;;8.20;5.20;;;;;;;-1.04;80.92;98686.88;103347;1254;98309;-71
2023/11/26 01:33:09;;;;;;;7.00;4.70;;;;;;;-1.08;81.13;98684.88;103299;1254;139183;-71
2023/11/26 01:35:36;;;;;;;8.40;5.10;;;;;;;-1.08;81.25;98689.97;103503;1254;97684;-71
2023/11/26 01:38:03;;;;;;;7.00;5.20;;;;;;;-1.06;81.37;98689.98;103209;1254;139023;-71
2023/11/26 01:40:36;;;;;;;8.00;5.10;;;;;;;-1.07;81.27;98689.98;103109;1256;108090;-72
2023/11/26 01:43:03;;;;;;;9.00;5.30;;;;;;;-1.08;81.34;98691.52;103294;1254;98319;-72
2023/11/26 01:45:30;;;;;;;10.40;5.50;;;;;;;-1.08;81.29;98687.42;102429;1258;1003329;-69
2023/11/26 01:47:57;;;;;;;7.40;5.40;;;;;;;-1.10;81.50;98690.17;101709;1260;1003646;-72
2023/11/26 01:50:25;;;;;;;8.20;5.50;;;;;;;-1.10;81.55;98697.85;103292;1254;136872;-74
2023/11/26 01:52:54;;;;;;;7.00;5.00;;;;;;;-1.14;81.54;98700.10;102511;1258;1002960;-71
2023/11/26 01:55:21;;;;;;;7.20;4.70;;;;;;;-1.16;81.55;98699.79;101814;1254;1003110;-71
2023/11/26 01:57:48;;;;;;;9.10;4.90;;;;;;;-1.18;81.71;98697.59;102400;1259;1003056;-73
2023/11/26 02:00:17;;;;;;;8.50;4.30;;;;;;;-1.17;81.76;98696.89;103192;1254;97946;-72
2023/11/26 02:02:46;;;;;;;7.50;4.10;;;;;;;-1.13;81.79;98692.42;103621;1256;1002121;-72
2023/11/26 02:05:14;;;;;;;6.90;4.20;;;;;;;-1.10;81.70;98694.42;102588;1254;1003666;-72
2023/11/26 02:07:42;;;;;;;6.30;4.50;;;;;;;-1.08;81.73;98697.15;102582;1254;1003495;-73
2023/11/26 02:10:11;;;;;;;7.20;4.00;;;;;;;-1.03;81.71;98702.90;103233;1254;137629;-72
2023/11/26 02:12:38;;;;;;;8.00;4.30;;;;;;;-0.98;81.77;98707.77;103608;1254;97830;-72
2023/11/26 02:15:06;;;;;;;6.90;4.60;;;;;;;-0.94;81.87;98704.14;103231;1254;137435;-72
2023/11/26 02:17:35;;;;;;;7.00;4.70;;;;;;;-0.90;81.72;98702.75;102605;1258;1016351;-71
2023/11/26 02:20:04;;;;;;;6.50;4.10;;;;;;;-0.90;81.45;98704.11;103287;1259;138013;-70
2023/11/26 02:22:32;;;;;;;6.50;4.40;;;;;;;-0.94;81.47;98702.95;102585;1257;1003183;-70
2023/11/26 02:24:59;;;;;;;6.80;3.80;;;;;;;-0.95;81.55;98702.29;102432;1255;1002622;-72
2023/11/26 02:27:27;;;;;;;9.70;5.40;;;;;;;-0.95;81.59;98704.52;103241;1254;138335;-70
2023/11/26 02:29:54;;;;;;;5.20;3.70;;;;;;;-0.92;81.63;98706.51;103284;1254;108757;-72
2023/11/26 02:32:21;;;;;;;4.50;3.50;;;;;;;-0.88;81.63;98703.77;101740;1259;1002912;-73
2023/11/26 02:34:47;;;;;;;6.10;4.10;;;;;;;-0.84;81.37;98704.91;103243;1256;107953;-72
2023/11/26 02:37:14;;;;;;;5.70;4.00;;;;;;;-0.80;81.45;98708.10;103313;1256;97812;-72
2023/11/26 02:39:41;;;;;;;6.40;4.10;;;;;;;-0.74;81.53;98709.74;102469;1254;1003108;-73
2023/11/26 02:42:09;;;;;;;5.20;3.80;;;;;;;-0.71;81.32;98708.52;102576;1258;1003689;-72
2023/11/26 02:44:36;;;;;;;6.10;4.00;;;;;;;-0.72;80.96;98707.00;102332;1254;1003029;-72
2023/11/26 02:47:03;;;;;;;6.60;4.10;;;;;;;-0.75;81.08;98709.57;102619;1254;1003830;-72
2023/11/26 02:49:30;;;;;;;6.40;4.10;;;;;;;-0.77;81.12;98708.92;103280;1254;97820;-72
2023/11/26 02:51:57;;;;;;;4.90;3.70;;;;;;;-0.78;80.91;98713.02;103230;1256;137555;-71
2023/11/26 02:54:24;;;;;;;7.10;3.60;;;;;;;-0.79;80.97;98714.08;103296;1258;108374;-72
2023/11/26 02:56:51;;;;;;;4.30;3.40;;;;;;;-0.79;81.11;98722.09;103244;1254;138273;-72
2023/11/26 02:59:17;;;;;;;6.60;3.90;;;;;;;-0.77;81.03;98725.47;103174;1254;107351;-71
